sensor_id;sensor_type;location;lat;lon;timestamp;temperature;humidity
27647;DHT22;42229;51.230;6.240;2022-08-07T00:01:29;14.90;84.50
27647;DHT22;42229;51.230;6.240;2022-08-07T00:03:55;14.90;84.40
27647;DHT22;42229;51.230;6.240;2022-08-07T00:06:21;14.90;84.20
27647;DHT22;42229;51.230;6.240;2022-08-07T00:08:48;14.80;83.50
27647;DHT22;42229;51.230;6.240;2022-08-07T00:11:14;14.80;83.30
27647;DHT22;42229;51.230;6.240;2022-08-07T00:13:40;14.80;83.10
27647;DHT22;42229;51.230;6.240;2022-08-07T00:16:09;14.80;83.00
27647;DHT22;42229;51.230;6.240;2022-08-07T00:18:35;14.80;83.00
27647;DHT22;42229;51.230;6.240;2022-08-07T00:21:02;14.70;83.10
27647;DHT22;42229;51.230;6.240;2022-08-07T00:23:30;14.70;84.20
27647;DHT22;42229;51.230;6.240;2022-08-07T00:25:57;14.60;85.80
27647;DHT22;42229;51.230;6.240;2022-08-07T00:28:24;14.60;85.10
27647;DHT22;42229;51.230;6.240;2022-08-07T00:30:51;14.60;84.60
27647;DHT22;42229;51.230;6.240;2022-08-07T00:33:17;14.50;84.20
27647;DHT22;42229;51.230;6.240;2022-08-07T00:35:43;14.50;84.10
27647;DHT22;42229;51.230;6.240;2022-08-07T00:38:09;14.40;85.60
27647;DHT22;42229;51.230;6.240;2022-08-07T00:40:36;14.40;85.20
27647;DHT22;42229;51.230;6.240;2022-08-07T00:43:02;14.40;85.00
27647;DHT22;42229;51.230;6.240;2022-08-07T00:45:28;14.40;84.90
27647;DHT22;42229;51.230;6.240;2022-08-07T00:47:55;14.30;84.90
27647;DHT22;42229;51.230;6.240;2022-08-07T00:50:21;14.30;85.00
27647;DHT22;42229;51.230;6.240;2022-08-07T00:52:47;14.30;85.30
27647;DHT22;42229;51.230;6.240;2022-08-07T00:55:14;14.20;85.20
27647;DHT22;42229;51.230;6.240;2022-08-07T00:57:41;14.20;85.40
27647;DHT22;42229;51.230;6.240;2022-08-07T01:00:08;14.10;87.80
27647;DHT22;42229;51.230;6.240;2022-08-07T01:02:35;14.10;88.00
27647;DHT22;42229;51.230;6.240;2022-08-07T01:05:03;14.10;91.00
27647;DHT22;42229;51.230;6.240;2022-08-07T01:07:31;14.10;91.90
27647;DHT22;42229;51.230;6.240;2022-08-07T01:09:57;14.10;91.90
27647;DHT22;42229;51.230;6.240;2022-08-07T01:12:24;14.00;90.60
27647;DHT22;42229;51.230;6.240;2022-08-07T01:14:50;14.00;90.60
27647;DHT22;42229;51.230;6.240;2022-08-07T01:17:16;13.90;91.00
27647;DHT22;42229;51.230;6.240;2022-08-07T01:19:43;13.80;90.90
27647;DHT22;42229;51.230;6.240;2022-08-07T01:22:10;13.80;92.10
27647;DHT22;42229;51.230;6.240;2022-08-07T01:24:39;13.80;91.70
27647;DHT22;42229;51.230;6.240;2022-08-07T01:27:06;13.80;92.20
27647;DHT22;42229;51.230;6.240;2022-08-07T01:29:33;13.70;91.40
27647;DHT22;42229;51.230;6.240;2022-08-07T01:32:00;13.70;91.00
27647;DHT22;42229;51.230;6.240;2022-08-07T01:34:31;13.70;91.10
27647;DHT22;42229;51.230;6.240;2022-08-07T01:37:03;13.70;90.90
27647;DHT22;42229;51.230;6.240;2022-08-07T01:39:30;13.60;90.70
27647;DHT22;42229;51.230;6.240;2022-08-07T01:42:03;13.60;90.60
27647;DHT22;42229;51.230;6.240;2022-08-07T01:44:30;13.60;90.60
27647;DHT22;42229;51.230;6.240;2022-08-07T01:46:57;13.60;90.60
27647;DHT22;42229;51.230;6.240;2022-08-07T01:49:26;13.60;90.60
27647;DHT22;42229;51.230;6.240;2022-08-07T01:51:53;13.60;90.60
27647;DHT22;42229;51.230;6.240;2022-08-07T01:54:20;13.60;90.70
27647;DHT22;42229;51.230;6.240;2022-08-07T01:56:58;13.50;90.60
27647;DHT22;42229;51.230;6.240;2022-08-07T01:59:35;13.50;90.60
27647;DHT22;42229;51.230;6.240;2022-08-07T02:02:07;13.50;90.70
27647;DHT22;42229;51.230;6.240;2022-08-07T02:07:19;13.40;90.70
27647;DHT22;42229;51.230;6.240;2022-08-07T02:09:49;13.40;90.70
27647;DHT22;42229;51.230;6.240;2022-08-07T02:12:19;13.40;90.80
27647;DHT22;42229;51.230;6.240;2022-08-07T02:14:53;13.30;90.70
27647;DHT22;42229;51.230;6.240;2022-08-07T02:17:41;13.30;90.90
27647;DHT22;42229;51.230;6.240;2022-08-07T02:20:09;13.30;90.90
27647;DHT22;42229;51.230;6.240;2022-08-07T02:22:36;13.30;91.00
27647;DHT22;42229;51.230;6.240;2022-08-07T02:25:04;13.20;91.00
27647;DHT22;42229;51.230;6.240;2022-08-07T02:27:31;13.20;91.00
27647;DHT22;42229;51.230;6.240;2022-08-07T02:29:59;13.20;91.00
27647;DHT22;42229;51.230;6.240;2022-08-07T02:32:31;13.10;91.10
27647;DHT22;42229;51.230;6.240;2022-08-07T02:35:01;13.10;91.20
27647;DHT22;42229;51.230;6.240;2022-08-07T02:37:30;13.10;92.30
27647;DHT22;42229;51.230;6.240;2022-08-07T02:39:58;13.10;92.60
27647;DHT22;42229;51.230;6.240;2022-08-07T02:42:26;13.00;92.20
27647;DHT22;42229;51.230;6.240;2022-08-07T02:44:53;13.10;92.00
27647;DHT22;42229;51.230;6.240;2022-08-07T02:47:22;13.00;92.00
27647;DHT22;42229;51.230;6.240;2022-08-07T02:49:51;13.00;91.90
27647;DHT22;42229;51.230;6.240;2022-08-07T02:52:22;13.00;91.90
27647;DHT22;42229;51.230;6.240;2022-08-07T02:54:52;13.00;91.90
27647;DHT22;42229;51.230;6.240;2022-08-07T02:57:20;13.00;92.00
27647;DHT22;42229;51.230;6.240;2022-08-07T02:59:46;12.90;91.90
27647;DHT22;42229;51.230;6.240;2022-08-07T03:02:16;12.90;91.90
27647;DHT22;42229;51.230;6.240;2022-08-07T03:04:43;12.90;91.90
27647;DHT22;42229;51.230;6.240;2022-08-07T03:07:10;12.80;91.90
27647;DHT22;42229;51.230;6.240;2022-08-07T03:09:40;12.80;92.00
27647;DHT22;42229;51.230;6.240;2022-08-07T03:12:06;12.70;92.00
27647;DHT22;42229;51.230;6.240;2022-08-07T03:14:35;12.70;92.00
27647;DHT22;42229;51.230;6.240;2022-08-07T03:17:03;12.70;92.10
27647;DHT22;42229;51.230;6.240;2022-08-07T03:19:30;12.60;92.10
27647;DHT22;42229;51.230;6.240;2022-08-07T03:21:58;12.60;92.40
27647;DHT22;42229;51.230;6.240;2022-08-07T03:24:25;12.60;93.40
27647;DHT22;42229;51.230;6.240;2022-08-07T03:26:53;12.50;93.30
27647;DHT22;42229;51.230;6.240;2022-08-07T03:29:20;12.50;93.10
27647;DHT22;42229;51.230;6.240;2022-08-07T03:31:47;12.50;92.90
27647;DHT22;42229;51.230;6.240;2022-08-07T03:34:15;12.50;92.90
27647;DHT22;42229;51.230;6.240;2022-08-07T03:36:42;12.40;92.80
27647;DHT22;42229;51.230;6.240;2022-08-07T03:39:12;12.40;92.80
27647;DHT22;42229;51.230;6.240;2022-08-07T03:41:40;12.40;92.80
27647;DHT22;42229;51.230;6.240;2022-08-07T03:44:07;12.40;92.80
27647;DHT22;42229;51.230;6.240;2022-08-07T03:46:33;12.30;92.90
27647;DHT22;42229;51.230;6.240;2022-08-07T03:49:00;12.30;92.90
27647;DHT22;42229;51.230;6.240;2022-08-07T03:51:29;12.30;92.90
27647;DHT22;42229;51.230;6.240;2022-08-07T03:53:58;12.30;93.00
27647;DHT22;42229;51.230;6.240;2022-08-07T03:56:26;12.20;93.00
27647;DHT22;42229;51.230;6.240;2022-08-07T03:58:56;12.20;93.00
27647;DHT22;42229;51.230;6.240;2022-08-07T04:01:22;12.20;93.10
27647;DHT22;42229;51.230;6.240;2022-08-07T04:03:49;12.20;93.20
27647;DHT22;42229;51.230;6.240;2022-08-07T04:06:16;12.10;93.20
27647;DHT22;42229;51.230;6.240;2022-08-07T04:08:42;12.10;93.90
27647;DHT22;42229;51.230;6.240;2022-08-07T04:11:09;12.10;93.80
27647;DHT22;42229;51.230;6.240;2022-08-07T04:13:38;12.10;93.70
27647;DHT22;42229;51.230;6.240;2022-08-07T04:16:05;12.10;93.70
27647;DHT22;42229;51.230;6.240;2022-08-07T04:18:32;12.10;93.70
27647;DHT22;42229;51.230;6.240;2022-08-07T04:21:01;12.10;93.70
27647;DHT22;42229;51.230;6.240;2022-08-07T04:23:30;12.10;93.70
27647;DHT22;42229;51.230;6.240;2022-08-07T04:25:56;12.00;93.80
27647;DHT22;42229;51.230;6.240;2022-08-07T04:28:22;12.00;93.80
27647;DHT22;42229;51.230;6.240;2022-08-07T04:30:49;12.00;94.40
27647;DHT22;42229;51.230;6.240;2022-08-07T04:33:20;12.00;94.90
27647;DHT22;42229;51.230;6.240;2022-08-07T04:35:48;12.00;95.20
27647;DHT22;42229;51.230;6.240;2022-08-07T04:38:16;12.10;96.00
27647;DHT22;42229;51.230;6.240;2022-08-07T04:40:46;12.10;96.40
27647;DHT22;42229;51.230;6.240;2022-08-07T04:43:13;12.10;95.90
27647;DHT22;42229;51.230;6.240;2022-08-07T04:45:46;12.10;95.50
27647;DHT22;42229;51.230;6.240;2022-08-07T04:48:32;12.10;95.30
27647;DHT22;42229;51.230;6.240;2022-08-07T04:54:02;12.20;95.20
27647;DHT22;42229;51.230;6.240;2022-08-07T04:56:45;12.10;95.10
27647;DHT22;42229;51.230;6.240;2022-08-07T05:01:43;12.20;95.10
27647;DHT22;42229;51.230;6.240;2022-08-07T05:04:15;12.20;95.20
27647;DHT22;42229;51.230;6.240;2022-08-07T05:06:48;12.20;95.90
27647;DHT22;42229;51.230;6.240;2022-08-07T05:09:25;12.20;96.00
27647;DHT22;42229;51.230;6.240;2022-08-07T05:11:54;12.30;95.90
27647;DHT22;42229;51.230;6.240;2022-08-07T05:14:27;12.30;95.80
27647;DHT22;42229;51.230;6.240;2022-08-07T05:16:58;12.40;95.90
27647;DHT22;42229;51.230;6.240;2022-08-07T05:19:29;12.40;96.10
27647;DHT22;42229;51.230;6.240;2022-08-07T05:21:57;12.40;96.70
27647;DHT22;42229;51.230;6.240;2022-08-07T05:24:24;12.50;98.30
27647;DHT22;42229;51.230;6.240;2022-08-07T05:26:54;12.60;97.70
27647;DHT22;42229;51.230;6.240;2022-08-07T05:29:22;12.60;97.30
27647;DHT22;42229;51.230;6.240;2022-08-07T05:31:50;12.70;97.20
27647;DHT22;42229;51.230;6.240;2022-08-07T05:34:21;12.80;97.40
27647;DHT22;42229;51.230;6.240;2022-08-07T05:36:51;12.90;97.30
27647;DHT22;42229;51.230;6.240;2022-08-07T05:39:25;12.90;97.30
27647;DHT22;42229;51.230;6.240;2022-08-07T05:41:56;13.00;97.20
27647;DHT22;42229;51.230;6.240;2022-08-07T05:44:23;13.10;97.10
27647;DHT22;42229;51.230;6.240;2022-08-07T05:46:49;13.20;97.10
27647;DHT22;42229;51.230;6.240;2022-08-07T05:49:20;13.30;97.20
27647;DHT22;42229;51.230;6.240;2022-08-07T05:51:49;13.30;97.20
27647;DHT22;42229;51.230;6.240;2022-08-07T05:54:18;13.40;97.70
27647;DHT22;42229;51.230;6.240;2022-08-07T05:56:46;13.50;98.40
27647;DHT22;42229;51.230;6.240;2022-08-07T05:59:14;13.60;99.80
27647;DHT22;42229;51.230;6.240;2022-08-07T06:01:44;13.80;99.80
27647;DHT22;42229;51.230;6.240;2022-08-07T06:04:13;13.90;99.10
27647;DHT22;42229;51.230;6.240;2022-08-07T06:06:40;14.00;98.90
27647;DHT22;42229;51.230;6.240;2022-08-07T06:09:08;14.10;99.30
27647;DHT22;42229;51.230;6.240;2022-08-07T06:11:38;14.20;99.90
27647;DHT22;42229;51.230;6.240;2022-08-07T06:14:05;14.30;99.90
27647;DHT22;42229;51.230;6.240;2022-08-07T06:16:32;14.50;99.90
27647;DHT22;42229;51.230;6.240;2022-08-07T06:19:02;14.50;99.90
27647;DHT22;42229;51.230;6.240;2022-08-07T06:21:29;14.70;99.90
27647;DHT22;42229;51.230;6.240;2022-08-07T06:23:56;14.80;99.90
27647;DHT22;42229;51.230;6.240;2022-08-07T06:26:24;15.00;99.90
27647;DHT22;42229;51.230;6.240;2022-08-07T06:28:53;15.10;99.90
27647;DHT22;42229;51.230;6.240;2022-08-07T06:31:22;15.20;99.90
27647;DHT22;42229;51.230;6.240;2022-08-07T06:33:49;15.30;99.90
27647;DHT22;42229;51.230;6.240;2022-08-07T06:36:15;15.40;99.90
27647;DHT22;42229;51.230;6.240;2022-08-07T06:38:47;15.50;99.90
27647;DHT22;42229;51.230;6.240;2022-08-07T06:41:17;15.60;99.90
27647;DHT22;42229;51.230;6.240;2022-08-07T06:43:48;15.70;99.90
27647;DHT22;42229;51.230;6.240;2022-08-07T06:46:18;15.90;99.90
27647;DHT22;42229;51.230;6.240;2022-08-07T06:48:45;16.00;99.90
27647;DHT22;42229;51.230;6.240;2022-08-07T06:51:17;16.10;99.90
27647;DHT22;42229;51.230;6.240;2022-08-07T06:53:45;16.20;99.90
27647;DHT22;42229;51.230;6.240;2022-08-07T06:56:14;16.40;99.90
27647;DHT22;42229;51.230;6.240;2022-08-07T06:58:45;16.40;99.90
27647;DHT22;42229;51.230;6.240;2022-08-07T07:01:14;16.60;99.90
27647;DHT22;42229;51.230;6.240;2022-08-07T07:03:41;16.70;99.90
27647;DHT22;42229;51.230;6.240;2022-08-07T07:06:08;16.80;99.90
27647;DHT22;42229;51.230;6.240;2022-08-07T07:08:34;17.00;99.90
27647;DHT22;42229;51.230;6.240;2022-08-07T07:11:04;17.00;99.90
27647;DHT22;42229;51.230;6.240;2022-08-07T07:13:38;17.20;99.90
27647;DHT22;42229;51.230;6.240;2022-08-07T07:16:08;17.30;99.90
27647;DHT22;42229;51.230;6.240;2022-08-07T07:19:00;17.40;99.90
27647;DHT22;42229;51.230;6.240;2022-08-07T07:21:25;17.50;99.90
27647;DHT22;42229;51.230;6.240;2022-08-07T07:23:52;17.70;99.90
27647;DHT22;42229;51.230;6.240;2022-08-07T07:26:19;17.80;99.90
27647;DHT22;42229;51.230;6.240;2022-08-07T07:28:51;17.90;99.90
27647;DHT22;42229;51.230;6.240;2022-08-07T07:33:55;18.20;99.90
27647;DHT22;42229;51.230;6.240;2022-08-07T07:36:24;18.30;99.90
27647;DHT22;42229;51.230;6.240;2022-08-07T07:38:51;18.40;99.90
27647;DHT22;42229;51.230;6.240;2022-08-07T07:41:18;18.60;99.90
27647;DHT22;42229;51.230;6.240;2022-08-07T07:43:47;18.70;99.90
27647;DHT22;42229;51.230;6.240;2022-08-07T07:46:16;18.80;99.90
27647;DHT22;42229;51.230;6.240;2022-08-07T07:48:44;19.00;99.90
27647;DHT22;42229;51.230;6.240;2022-08-07T07:51:11;19.10;99.30
27647;DHT22;42229;51.230;6.240;2022-08-07T07:53:39;19.20;98.40
27647;DHT22;42229;51.230;6.240;2022-08-07T07:56:07;19.30;98.50
27647;DHT22;42229;51.230;6.240;2022-08-07T07:58:35;19.50;98.40
27647;DHT22;42229;51.230;6.240;2022-08-07T08:01:02;19.60;97.40
27647;DHT22;42229;51.230;6.240;2022-08-07T08:03:30;19.80;98.60
27647;DHT22;42229;51.230;6.240;2022-08-07T08:05:56;19.90;96.00
27647;DHT22;42229;51.230;6.240;2022-08-07T08:08:24;20.00;97.20
27647;DHT22;42229;51.230;6.240;2022-08-07T08:10:55;20.20;96.60
27647;DHT22;42229;51.230;6.240;2022-08-07T08:13:23;20.30;97.70
27647;DHT22;42229;51.230;6.240;2022-08-07T08:15:50;20.40;96.80
27647;DHT22;42229;51.230;6.240;2022-08-07T08:18:16;20.60;97.10
27647;DHT22;42229;51.230;6.240;2022-08-07T08:20:42;20.70;96.70
27647;DHT22;42229;51.230;6.240;2022-08-07T08:23:10;20.90;97.30
27647;DHT22;42229;51.230;6.240;2022-08-07T08:25:56;21.00;96.40
27647;DHT22;42229;51.230;6.240;2022-08-07T08:28:43;21.20;97.10
27647;DHT22;42229;51.230;6.240;2022-08-07T08:31:11;21.30;95.10
27647;DHT22;42229;51.230;6.240;2022-08-07T08:33:41;21.40;93.80
27647;DHT22;42229;51.230;6.240;2022-08-07T08:36:07;21.60;92.40
27647;DHT22;42229;51.230;6.240;2022-08-07T08:38:38;21.70;94.20
27647;DHT22;42229;51.230;6.240;2022-08-07T08:41:13;21.80;92.70
27647;DHT22;42229;51.230;6.240;2022-08-07T08:46:22;22.00;91.90
27647;DHT22;42229;51.230;6.240;2022-08-07T08:49:07;22.20;93.40
27647;DHT22;42229;51.230;6.240;2022-08-07T08:51:40;22.30;91.10
27647;DHT22;42229;51.230;6.240;2022-08-07T08:54:31;22.40;91.90
27647;DHT22;42229;51.230;6.240;2022-08-07T08:57:27;22.60;91.10
27647;DHT22;42229;51.230;6.240;2022-08-07T09:00:00;22.80;94.10
27647;DHT22;42229;51.230;6.240;2022-08-07T09:13:35;23.40;90.00
27647;DHT22;42229;51.230;6.240;2022-08-07T09:16:06;23.50;86.90
27647;DHT22;42229;51.230;6.240;2022-08-07T09:18:44;23.70;90.40
27647;DHT22;42229;51.230;6.240;2022-08-07T09:24:15;24.00;80.50
27647;DHT22;42229;51.230;6.240;2022-08-07T09:29:45;24.20;66.00
27647;DHT22;42229;51.230;6.240;2022-08-07T09:32:49;24.20;64.30
27647;DHT22;42229;51.230;6.240;2022-08-07T09:37:50;24.20;71.30
27647;DHT22;42229;51.230;6.240;2022-08-07T09:46:25;24.40;70.00
27647;DHT22;42229;51.230;6.240;2022-08-07T09:54:29;24.60;68.30
27647;DHT22;42229;51.230;6.240;2022-08-07T09:57:15;24.70;71.50
27647;DHT22;42229;51.230;6.240;2022-08-07T10:00:08;24.80;72.80
27647;DHT22;42229;51.230;6.240;2022-08-07T10:03:00;24.90;70.10
27647;DHT22;42229;51.230;6.240;2022-08-07T10:08:08;25.10;70.40
27647;DHT22;42229;51.230;6.240;2022-08-07T10:10:47;25.20;66.60
27647;DHT22;42229;51.230;6.240;2022-08-07T10:13:36;25.20;63.40
27647;DHT22;42229;51.230;6.240;2022-08-07T10:19:06;25.30;64.70
27647;DHT22;42229;51.230;6.240;2022-08-07T10:21:40;25.40;69.80
27647;DHT22;42229;51.230;6.240;2022-08-07T10:27:15;25.60;69.50
27647;DHT22;42229;51.230;6.240;2022-08-07T10:30:07;25.70;69.00
27647;DHT22;42229;51.230;6.240;2022-08-07T10:41:08;26.20;62.00
27647;DHT22;42229;51.230;6.240;2022-08-07T10:43:41;26.30;65.60
27647;DHT22;42229;51.230;6.240;2022-08-07T10:46:23;26.30;63.30
27647;DHT22;42229;51.230;6.240;2022-08-07T10:49:02;26.40;56.00
27647;DHT22;42229;51.230;6.240;2022-08-07T10:54:20;26.60;68.00
27647;DHT22;42229;51.230;6.240;2022-08-07T11:00:08;26.70;58.50
27647;DHT22;42229;51.230;6.240;2022-08-07T11:02:39;26.70;58.20
27647;DHT22;42229;51.230;6.240;2022-08-07T11:11:05;26.70;51.90
27647;DHT22;42229;51.230;6.240;2022-08-07T11:13:54;26.80;51.70
27647;DHT22;42229;51.230;6.240;2022-08-07T11:16:47;26.80;52.00
27647;DHT22;42229;51.230;6.240;2022-08-07T11:24:29;26.90;54.60
27647;DHT22;42229;51.230;6.240;2022-08-07T11:30:06;27.00;54.20
27647;DHT22;42229;51.230;6.240;2022-08-07T11:32:34;27.00;51.50
27647;DHT22;42229;51.230;6.240;2022-08-07T11:35:08;27.00;49.40
27647;DHT22;42229;51.230;6.240;2022-08-07T11:43:11;27.30;57.80
27647;DHT22;42229;51.230;6.240;2022-08-07T11:46:02;27.40;58.10
27647;DHT22;42229;51.230;6.240;2022-08-07T11:53:49;28.30;51.70
27647;DHT22;42229;51.230;6.240;2022-08-07T11:56:44;28.70;50.50
27647;DHT22;42229;51.230;6.240;2022-08-07T12:07:51;29.70;50.30
27647;DHT22;42229;51.230;6.240;2022-08-07T12:10:24;30.00;44.90
27647;DHT22;42229;51.230;6.240;2022-08-07T12:12:57;30.10;49.10
27647;DHT22;42229;51.230;6.240;2022-08-07T12:15:32;30.30;52.90
27647;DHT22;42229;51.230;6.240;2022-08-07T12:18:19;30.50;50.90
27647;DHT22;42229;51.230;6.240;2022-08-07T12:21:00;30.70;48.30
27647;DHT22;42229;51.230;6.240;2022-08-07T12:26:28;31.30;50.60
27647;DHT22;42229;51.230;6.240;2022-08-07T12:29:06;31.60;52.00
27647;DHT22;42229;51.230;6.240;2022-08-07T12:31:56;32.00;52.10
27647;DHT22;42229;51.230;6.240;2022-08-07T12:34:22;32.30;46.20
27647;DHT22;42229;51.230;6.240;2022-08-07T12:36:52;32.60;46.80
27647;DHT22;42229;51.230;6.240;2022-08-07T12:39:19;32.80;41.60
27647;DHT22;42229;51.230;6.240;2022-08-07T12:41:45;33.00;44.10
27647;DHT22;42229;51.230;6.240;2022-08-07T12:44:12;33.10;43.10
27647;DHT22;42229;51.230;6.240;2022-08-07T12:46:48;33.30;46.50
27647;DHT22;42229;51.230;6.240;2022-08-07T12:49:21;33.40;40.70
27647;DHT22;42229;51.230;6.240;2022-08-07T12:51:59;33.40;39.10
27647;DHT22;42229;51.230;6.240;2022-08-07T12:55:13;33.10;41.20
27647;DHT22;42229;51.230;6.240;2022-08-07T12:57:32;33.00;39.20
27647;DHT22;42229;51.230;6.240;2022-08-07T13:00:00;32.90;41.60
27647;DHT22;42229;51.230;6.240;2022-08-07T13:05:24;32.90;39.80
27647;DHT22;42229;51.230;6.240;2022-08-07T13:08:04;33.00;41.10
27647;DHT22;42229;51.230;6.240;2022-08-07T13:19:20;34.30;40.30
27647;DHT22;42229;51.230;6.240;2022-08-07T13:24:25;34.80;42.90
27647;DHT22;42229;51.230;6.240;2022-08-07T13:27:15;34.90;43.80
27647;DHT22;42229;51.230;6.240;2022-08-07T13:37:45;34.90;40.10
27647;DHT22;42229;51.230;6.240;2022-08-07T13:40:19;34.70;37.50
27647;DHT22;42229;51.230;6.240;2022-08-07T13:42:51;34.70;41.20
27647;DHT22;42229;51.230;6.240;2022-08-07T13:45:19;34.60;38.10
27647;DHT22;42229;51.230;6.240;2022-08-07T13:47:46;34.70;40.20
27647;DHT22;42229;51.230;6.240;2022-08-07T13:50:16;34.60;39.00
27647;DHT22;42229;51.230;6.240;2022-08-07T13:52:42;34.70;39.10
27647;DHT22;42229;51.230;6.240;2022-08-07T13:55:12;34.70;39.50
27647;DHT22;42229;51.230;6.240;2022-08-07T13:57:41;34.60;37.10
27647;DHT22;42229;51.230;6.240;2022-08-07T14:00:09;34.60;37.00
27647;DHT22;42229;51.230;6.240;2022-08-07T14:02:39;34.40;37.70
27647;DHT22;42229;51.230;6.240;2022-08-07T14:05:10;34.40;40.70
27647;DHT22;42229;51.230;6.240;2022-08-07T14:07:40;34.30;35.90
27647;DHT22;42229;51.230;6.240;2022-08-07T14:10:11;34.00;36.80
27647;DHT22;42229;51.230;6.240;2022-08-07T14:15:25;33.70;37.50
27647;DHT22;42229;51.230;6.240;2022-08-07T14:20:20;33.60;54.40
27647;DHT22;42229;51.230;6.240;2022-08-07T14:22:50;33.40;39.90
27647;DHT22;42229;51.230;6.240;2022-08-07T14:25:22;33.40;39.50
27647;DHT22;42229;51.230;6.240;2022-08-07T14:27:50;33.40;39.40
27647;DHT22;42229;51.230;6.240;2022-08-07T14:30:17;33.30;39.10
27647;DHT22;42229;51.230;6.240;2022-08-07T14:32:44;32.80;38.90
27647;DHT22;42229;51.230;6.240;2022-08-07T14:35:46;32.80;39.80
27647;DHT22;42229;51.230;6.240;2022-08-07T14:38:05;32.90;39.90
27647;DHT22;42229;51.230;6.240;2022-08-07T14:40:31;33.00;40.40
27647;DHT22;42229;51.230;6.240;2022-08-07T14:43:06;33.10;39.10
27647;DHT22;42229;51.230;6.240;2022-08-07T14:45:48;33.30;38.40
27647;DHT22;42229;51.230;6.240;2022-08-07T14:48:16;33.60;39.90
27647;DHT22;42229;51.230;6.240;2022-08-07T14:50:46;33.80;39.50
27647;DHT22;42229;51.230;6.240;2022-08-07T14:53:15;34.10;39.40
27647;DHT22;42229;51.230;6.240;2022-08-07T14:55:42;34.30;37.40
27647;DHT22;42229;51.230;6.240;2022-08-07T14:58:11;34.60;41.30
27647;DHT22;42229;51.230;6.240;2022-08-07T15:00:38;34.90;36.80
27647;DHT22;42229;51.230;6.240;2022-08-07T15:03:07;35.10;39.10
27647;DHT22;42229;51.230;6.240;2022-08-07T15:05:34;35.30;38.30
27647;DHT22;42229;51.230;6.240;2022-08-07T15:08:02;35.50;38.60
27647;DHT22;42229;51.230;6.240;2022-08-07T15:10:30;35.60;36.70
27647;DHT22;42229;51.230;6.240;2022-08-07T15:12:57;35.80;40.60
27647;DHT22;42229;51.230;6.240;2022-08-07T15:15:32;35.90;36.40
27647;DHT22;42229;51.230;6.240;2022-08-07T15:18:03;35.90;35.60
27647;DHT22;42229;51.230;6.240;2022-08-07T15:20:35;35.90;35.30
27647;DHT22;42229;51.230;6.240;2022-08-07T15:23:09;35.80;35.00
27647;DHT22;42229;51.230;6.240;2022-08-07T15:25:38;35.60;35.00
27647;DHT22;42229;51.230;6.240;2022-08-07T15:28:06;35.60;35.80
27647;DHT22;42229;51.230;6.240;2022-08-07T15:30:33;35.50;36.70
27647;DHT22;42229;51.230;6.240;2022-08-07T15:33:01;35.40;35.80
27647;DHT22;42229;51.230;6.240;2022-08-07T15:35:28;35.30;35.50
27647;DHT22;42229;51.230;6.240;2022-08-07T15:37:57;35.30;38.00
27647;DHT22;42229;51.230;6.240;2022-08-07T15:40:26;35.40;36.70
27647;DHT22;42229;51.230;6.240;2022-08-07T15:45:31;35.30;33.80
27647;DHT22;42229;51.230;6.240;2022-08-07T15:48:33;35.30;35.80
27647;DHT22;42229;51.230;6.240;2022-08-07T15:50:55;35.30;37.10
27647;DHT22;42229;51.230;6.240;2022-08-07T15:53:28;35.40;36.00
27647;DHT22;42229;51.230;6.240;2022-08-07T15:56:00;35.40;38.60
27647;DHT22;42229;51.230;6.240;2022-08-07T15:58:40;35.60;37.70
27647;DHT22;42229;51.230;6.240;2022-08-07T16:01:15;35.60;34.80
27647;DHT22;42229;51.230;6.240;2022-08-07T16:03:44;35.70;37.50
27647;DHT22;42229;51.230;6.240;2022-08-07T16:06:14;35.90;35.90
27647;DHT22;42229;51.230;6.240;2022-08-07T16:08:41;35.90;35.30
27647;DHT22;42229;51.230;6.240;2022-08-07T16:11:22;36.00;36.40
27647;DHT22;42229;51.230;6.240;2022-08-07T16:19:41;35.80;35.50
27647;DHT22;42229;51.230;6.240;2022-08-07T16:22:40;35.70;37.60
27647;DHT22;42229;51.230;6.240;2022-08-07T16:27:48;35.30;35.00
27647;DHT22;42229;51.230;6.240;2022-08-07T16:30:20;35.00;35.90
27647;DHT22;42229;51.230;6.240;2022-08-07T16:32:49;34.70;34.50
27647;DHT22;42229;51.230;6.240;2022-08-07T16:35:19;34.50;36.60
27647;DHT22;42229;51.230;6.240;2022-08-07T16:37:50;34.40;37.00
27647;DHT22;42229;51.230;6.240;2022-08-07T16:40:36;34.20;36.70
27647;DHT22;42229;51.230;6.240;2022-08-07T17:10:14;35.00;35.30
27647;DHT22;42229;51.230;6.240;2022-08-07T17:18:42;34.90;35.70
27647;DHT22;42229;51.230;6.240;2022-08-07T17:21:28;34.70;36.40
27647;DHT22;42229;51.230;6.240;2022-08-07T17:38:15;33.70;36.70
27647;DHT22;42229;51.230;6.240;2022-08-07T17:41:00;33.70;38.20
27647;DHT22;42229;51.230;6.240;2022-08-07T17:43:39;33.80;37.90
27647;DHT22;42229;51.230;6.240;2022-08-07T17:46:12;33.90;38.70
27647;DHT22;42229;51.230;6.240;2022-08-07T17:48:49;34.00;38.70
27647;DHT22;42229;51.230;6.240;2022-08-07T17:51:21;34.10;38.00
27647;DHT22;42229;51.230;6.240;2022-08-07T17:53:57;34.20;39.20
27647;DHT22;42229;51.230;6.240;2022-08-07T17:56:30;34.20;38.30
27647;DHT22;42229;51.230;6.240;2022-08-07T17:59:00;34.10;37.50
27647;DHT22;42229;51.230;6.240;2022-08-07T18:01:39;33.90;38.30
27647;DHT22;42229;51.230;6.240;2022-08-07T18:04:18;33.80;38.20
27647;DHT22;42229;51.230;6.240;2022-08-07T18:06:50;33.60;38.80
27647;DHT22;42229;51.230;6.240;2022-08-07T18:09:21;33.50;38.90
27647;DHT22;42229;51.230;6.240;2022-08-07T18:14:45;33.40;38.40
27647;DHT22;42229;51.230;6.240;2022-08-07T18:20:10;33.20;39.10
27647;DHT22;42229;51.230;6.240;2022-08-07T18:22:49;33.00;38.90
27647;DHT22;42229;51.230;6.240;2022-08-07T18:25:23;32.70;39.10
27647;DHT22;42229;51.230;6.240;2022-08-07T18:41:40;31.50;40.20
27647;DHT22;42229;51.230;6.240;2022-08-07T18:44:34;31.40;40.10
27647;DHT22;42229;51.230;6.240;2022-08-07T18:47:10;31.20;40.30
27647;DHT22;42229;51.230;6.240;2022-08-07T18:54:48;30.20;40.70
27647;DHT22;42229;51.230;6.240;2022-08-07T19:02:43;29.00;41.40
27647;DHT22;42229;51.230;6.240;2022-08-07T19:10:22;27.90;42.30
27647;DHT22;42229;51.230;6.240;2022-08-07T19:12:58;27.50;42.50
27647;DHT22;42229;51.230;6.240;2022-08-07T19:23:25;26.40;43.50
27647;DHT22;42229;51.230;6.240;2022-08-07T19:25:54;26.10;44.10
27647;DHT22;42229;51.230;6.240;2022-08-07T19:28:22;25.90;44.40
27647;DHT22;42229;51.230;6.240;2022-08-07T19:30:55;25.70;44.10
27647;DHT22;42229;51.230;6.240;2022-08-07T19:33:25;25.50;45.10
27647;DHT22;42229;51.230;6.240;2022-08-07T19:35:53;25.30;44.20
27647;DHT22;42229;51.230;6.240;2022-08-07T19:38:22;25.10;43.80
27647;DHT22;42229;51.230;6.240;2022-08-07T19:40:51;25.00;44.60
27647;DHT22;42229;51.230;6.240;2022-08-07T19:43:26;24.80;44.50
27647;DHT22;42229;51.230;6.240;2022-08-07T19:45:56;24.60;45.00
27647;DHT22;42229;51.230;6.240;2022-08-07T19:48:29;24.50;45.00